sensor_id;sensor_type;location;lat;lon;timestamp;temperature;humidity
9998;DHT22;5038;53.064;8.624;2022-12-18T00:01:30;-5.50;99.90
9998;DHT22;5038;53.064;8.624;2022-12-18T00:04:01;-5.60;99.90
9998;DHT22;5038;53.064;8.624;2022-12-18T00:06:33;-5.60;99.90
9998;DHT22;5038;53.064;8.624;2022-12-18T00:09:04;-5.50;99.90
9998;DHT22;5038;53.064;8.624;2022-12-18T00:11:32;-5.60;99.90
9998;DHT22;5038;53.064;8.624;2022-12-18T00:14:00;-5.60;99.90
9998;DHT22;5038;53.064;8.624;2022-12-18T00:16:29;-5.60;99.90
9998;DHT22;5038;53.064;8.624;2022-12-18T00:19:00;-5.60;99.90
9998;DHT22;5038;53.064;8.624;2022-12-18T00:21:30;-5.60;99.90
9998;DHT22;5038;53.064;8.624;2022-12-18T00:23:59;-5.60;99.90
9998;DHT22;5038;53.064;8.624;2022-12-18T00:26:30;-5.60;99.90
9998;DHT22;5038;53.064;8.624;2022-12-18T00:29:03;-5.60;99.90
9998;DHT22;5038;53.064;8.624;2022-12-18T00:31:32;-5.60;99.90
9998;DHT22;5038;53.064;8.624;2022-12-18T00:34:01;-5.60;99.90
9998;DHT22;5038;53.064;8.624;2022-12-18T00:36:31;-5.60;99.90
9998;DHT22;5038;53.064;8.624;2022-12-18T00:39:01;-5.70;99.90
9998;DHT22;5038;53.064;8.624;2022-12-18T00:41:31;-5.70;99.90
9998;DHT22;5038;53.064;8.624;2022-12-18T00:44:17;-5.70;99.90
9998;DHT22;5038;53.064;8.624;2022-12-18T00:46:47;-5.70;99.90
9998;DHT22;5038;53.064;8.624;2022-12-18T00:49:16;-5.70;99.90
9998;DHT22;5038;53.064;8.624;2022-12-18T00:51:46;-5.70;99.90
9998;DHT22;5038;53.064;8.624;2022-12-18T00:54:14;-5.70;99.90
9998;DHT22;5038;53.064;8.624;2022-12-18T00:56:44;-5.70;99.90
9998;DHT22;5038;53.064;8.624;2022-12-18T00:59:17;-5.70;99.90
9998;DHT22;5038;53.064;8.624;2022-12-18T01:01:46;-5.70;99.90
9998;DHT22;5038;53.064;8.624;2022-12-18T01:04:15;-5.70;99.90
9998;DHT22;5038;53.064;8.624;2022-12-18T01:06:44;-5.80;99.90
9998;DHT22;5038;53.064;8.624;2022-12-18T01:09:13;-5.80;99.90
9998;DHT22;5038;53.064;8.624;2022-12-18T01:11:41;-5.80;99.90
9998;DHT22;5038;53.064;8.624;2022-12-18T01:14:11;-5.80;99.90
9998;DHT22;5038;53.064;8.624;2022-12-18T01:16:39;-5.80;99.90
9998;DHT22;5038;53.064;8.624;2022-12-18T01:19:09;-5.80;99.90
9998;DHT22;5038;53.064;8.624;2022-12-18T01:21:37;-5.80;99.90
9998;DHT22;5038;53.064;8.624;2022-12-18T01:24:06;-5.80;99.90
9998;DHT22;5038;53.064;8.624;2022-12-18T01:26:34;-5.80;99.90
9998;DHT22;5038;53.064;8.624;2022-12-18T01:29:03;-5.80;99.90
9998;DHT22;5038;53.064;8.624;2022-12-18T01:31:33;-5.80;99.90
9998;DHT22;5038;53.064;8.624;2022-12-18T01:34:02;-5.90;99.90
9998;DHT22;5038;53.064;8.624;2022-12-18T01:36:32;-5.90;99.90
9998;DHT22;5038;53.064;8.624;2022-12-18T01:39:03;-5.90;99.90
9998;DHT22;5038;53.064;8.624;2022-12-18T01:41:32;-5.90;99.90
9998;DHT22;5038;53.064;8.624;2022-12-18T01:47:35;-5.90;99.90
9998;DHT22;5038;53.064;8.624;2022-12-18T01:50:08;-5.90;99.90
9998;DHT22;5038;53.064;8.624;2022-12-18T01:52:40;-5.90;99.90
9998;DHT22;5038;53.064;8.624;2022-12-18T01:55:09;-5.90;99.90
9998;DHT22;5038;53.064;8.624;2022-12-18T01:57:39;-5.90;99.90
9998;DHT22;5038;53.064;8.624;2022-12-18T02:00:13;-6.00;99.90
9998;DHT22;5038;53.064;8.624;2022-12-18T02:02:45;-5.90;99.90
9998;DHT22;5038;53.064;8.624;2022-12-18T02:05:17;-6.00;99.90
9998;DHT22;5038;53.064;8.624;2022-12-18T02:07:59;-6.00;99.90
9998;DHT22;5038;53.064;8.624;2022-12-18T02:10:35;-6.00;99.90
9998;DHT22;5038;53.064;8.624;2022-12-18T02:13:12;-6.00;99.90
9998;DHT22;5038;53.064;8.624;2022-12-18T02:15:47;-6.00;99.90
9998;DHT22;5038;53.064;8.624;2022-12-18T02:18:22;-6.00;99.90
9998;DHT22;5038;53.064;8.624;2022-12-18T02:20:56;-6.00;99.90
9998;DHT22;5038;53.064;8.624;2022-12-18T02:23:41;-6.10;99.90
9998;DHT22;5038;53.064;8.624;2022-12-18T02:26:18;-6.10;99.90
9998;DHT22;5038;53.064;8.624;2022-12-18T02:28:53;-6.10;99.90
9998;DHT22;5038;53.064;8.624;2022-12-18T02:31:27;-6.10;99.90
9998;DHT22;5038;53.064;8.624;2022-12-18T02:34:01;-6.10;99.90
9998;DHT22;5038;53.064;8.624;2022-12-18T02:36:38;-6.10;99.90
9998;DHT22;5038;53.064;8.624;2022-12-18T02:39:11;-6.10;99.90
9998;DHT22;5038;53.064;8.624;2022-12-18T02:41:51;-6.10;99.90
9998;DHT22;5038;53.064;8.624;2022-12-18T02:44:23;-6.20;99.90
9998;DHT22;5038;53.064;8.624;2022-12-18T02:46:53;-6.20;99.90
9998;DHT22;5038;53.064;8.624;2022-12-18T02:49:29;-6.20;99.90
9998;DHT22;5038;53.064;8.624;2022-12-18T02:52:07;-6.20;99.90
9998;DHT22;5038;53.064;8.624;2022-12-18T02:54:52;-6.20;99.90
9998;DHT22;5038;53.064;8.624;2022-12-18T02:57:34;-6.20;99.90
9998;DHT22;5038;53.064;8.624;2022-12-18T03:00:06;-6.20;99.90
9998;DHT22;5038;53.064;8.624;2022-12-18T03:02:41;-6.20;99.90
9998;DHT22;5038;53.064;8.624;2022-12-18T03:05:15;-6.20;99.90
9998;DHT22;5038;53.064;8.624;2022-12-18T03:07:49;-6.30;99.90
9998;DHT22;5038;53.064;8.624;2022-12-18T03:10:22;-6.30;99.90
9998;DHT22;5038;53.064;8.624;2022-12-18T03:12:56;-6.30;99.90
9998;DHT22;5038;53.064;8.624;2022-12-18T03:15:31;-6.30;99.90
9998;DHT22;5038;53.064;8.624;2022-12-18T03:18:13;-6.30;99.90
9998;DHT22;5038;53.064;8.624;2022-12-18T03:20:44;-6.30;99.90
9998;DHT22;5038;53.064;8.624;2022-12-18T03:23:22;-6.40;99.90
9998;DHT22;5038;53.064;8.624;2022-12-18T03:25:54;-6.40;99.90
9998;DHT22;5038;53.064;8.624;2022-12-18T03:28:28;-6.40;99.90
9998;DHT22;5038;53.064;8.624;2022-12-18T03:31:03;-6.40;99.90
9998;DHT22;5038;53.064;8.624;2022-12-18T03:33:38;-6.40;99.90
9998;DHT22;5038;53.064;8.624;2022-12-18T03:36:08;-6.40;99.90
9998;DHT22;5038;53.064;8.624;2022-12-18T03:38:37;-6.40;99.90
9998;DHT22;5038;53.064;8.624;2022-12-18T03:41:15;-6.40;99.90
9998;DHT22;5038;53.064;8.624;2022-12-18T03:44:10;-6.40;99.90
9998;DHT22;5038;53.064;8.624;2022-12-18T03:46:49;-6.40;99.90
9998;DHT22;5038;53.064;8.624;2022-12-18T03:49:25;-6.50;99.90
9998;DHT22;5038;53.064;8.624;2022-12-18T03:52:01;-6.50;99.90
9998;DHT22;5038;53.064;8.624;2022-12-18T03:54:33;-6.50;99.90
9998;DHT22;5038;53.064;8.624;2022-12-18T03:57:13;-6.50;99.90
9998;DHT22;5038;53.064;8.624;2022-12-18T03:59:45;-6.50;99.90
9998;DHT22;5038;53.064;8.624;2022-12-18T04:02:21;-6.50;99.90
9998;DHT22;5038;53.064;8.624;2022-12-18T04:04:52;-6.50;99.90
9998;DHT22;5038;53.064;8.624;2022-12-18T04:07:22;-6.50;99.90
9998;DHT22;5038;53.064;8.624;2022-12-18T04:09:54;-6.50;99.90
9998;DHT22;5038;53.064;8.624;2022-12-18T04:12:24;-6.50;99.90
9998;DHT22;5038;53.064;8.624;2022-12-18T04:14:54;-6.50;99.90
9998;DHT22;5038;53.064;8.624;2022-12-18T04:17:23;-6.60;99.90
9998;DHT22;5038;53.064;8.624;2022-12-18T04:19:51;-6.60;99.90
9998;DHT22;5038;53.064;8.624;2022-12-18T04:22:19;-6.60;99.90
9998;DHT22;5038;53.064;8.624;2022-12-18T04:24:53;-6.60;99.90
9998;DHT22;5038;53.064;8.624;2022-12-18T04:27:29;-6.60;99.90
9998;DHT22;5038;53.064;8.624;2022-12-18T04:30:00;-6.60;99.90
9998;DHT22;5038;53.064;8.624;2022-12-18T04:32:29;-6.60;99.90
9998;DHT22;5038;53.064;8.624;2022-12-18T04:34:59;-6.60;99.90
9998;DHT22;5038;53.064;8.624;2022-12-18T04:37:27;-6.60;99.90
9998;DHT22;5038;53.064;8.624;2022-12-18T04:39:56;-6.60;99.90
9998;DHT22;5038;53.064;8.624;2022-12-18T04:42:32;-6.60;99.90
9998;DHT22;5038;53.064;8.624;2022-12-18T04:45:01;-6.70;99.90
9998;DHT22;5038;53.064;8.624;2022-12-18T04:47:30;-6.70;99.90
9998;DHT22;5038;53.064;8.624;2022-12-18T04:49:59;-6.70;99.90
9998;DHT22;5038;53.064;8.624;2022-12-18T04:52:27;-6.70;99.90
9998;DHT22;5038;53.064;8.624;2022-12-18T04:54:58;-6.70;99.90
9998;DHT22;5038;53.064;8.624;2022-12-18T04:57:26;-6.70;99.90
9998;DHT22;5038;53.064;8.624;2022-12-18T04:59:54;-6.70;99.90
9998;DHT22;5038;53.064;8.624;2022-12-18T05:02:24;-6.70;99.90
9998;DHT22;5038;53.064;8.624;2022-12-18T05:04:52;-6.70;99.90
9998;DHT22;5038;53.064;8.624;2022-12-18T05:07:20;-6.70;99.90
9998;DHT22;5038;53.064;8.624;2022-12-18T05:09:48;-6.70;99.90
9998;DHT22;5038;53.064;8.624;2022-12-18T05:12:16;-6.80;99.90
9998;DHT22;5038;53.064;8.624;2022-12-18T05:14:44;-6.80;99.90
9998;DHT22;5038;53.064;8.624;2022-12-18T05:17:12;-6.80;99.90
9998;DHT22;5038;53.064;8.624;2022-12-18T05:19:42;-6.80;99.90
9998;DHT22;5038;53.064;8.624;2022-12-18T05:22:10;-6.80;99.90
9998;DHT22;5038;53.064;8.624;2022-12-18T05:24:39;-6.80;99.90
9998;DHT22;5038;53.064;8.624;2022-12-18T05:27:07;-6.90;99.90
9998;DHT22;5038;53.064;8.624;2022-12-18T05:29:35;-6.90;99.90
9998;DHT22;5038;53.064;8.624;2022-12-18T05:32:04;-6.90;99.90
9998;DHT22;5038;53.064;8.624;2022-12-18T05:34:32;-6.90;99.90
9998;DHT22;5038;53.064;8.624;2022-12-18T05:37:01;-6.90;99.90
9998;DHT22;5038;53.064;8.624;2022-12-18T05:39:30;-6.90;99.90
9998;DHT22;5038;53.064;8.624;2022-12-18T05:41:58;-6.90;99.90
9998;DHT22;5038;53.064;8.624;2022-12-18T05:44:26;-6.90;99.90
9998;DHT22;5038;53.064;8.624;2022-12-18T05:46:54;-6.90;99.90
9998;DHT22;5038;53.064;8.624;2022-12-18T05:49:22;-6.90;99.90
9998;DHT22;5038;53.064;8.624;2022-12-18T05:51:50;-7.00;99.90
9998;DHT22;5038;53.064;8.624;2022-12-18T05:54:20;-7.00;99.90
9998;DHT22;5038;53.064;8.624;2022-12-18T05:56:48;-7.00;99.90
9998;DHT22;5038;53.064;8.624;2022-12-18T05:59:16;-7.00;99.90
9998;DHT22;5038;53.064;8.624;2022-12-18T06:01:45;-7.00;99.90
9998;DHT22;5038;53.064;8.624;2022-12-18T06:04:13;-7.00;99.90
9998;DHT22;5038;53.064;8.624;2022-12-18T06:06:41;-7.00;99.90
9998;DHT22;5038;53.064;8.624;2022-12-18T06:09:09;-7.00;99.90
9998;DHT22;5038;53.064;8.624;2022-12-18T06:11:39;-7.00;99.90
9998;DHT22;5038;53.064;8.624;2022-12-18T06:14:09;-7.00;99.90
9998;DHT22;5038;53.064;8.624;2022-12-18T06:16:37;-7.00;99.90
9998;DHT22;5038;53.064;8.624;2022-12-18T06:19:06;-7.10;99.90
9998;DHT22;5038;53.064;8.624;2022-12-18T06:21:34;-7.10;99.90
9998;DHT22;5038;53.064;8.624;2022-12-18T06:24:02;-7.10;99.90
9998;DHT22;5038;53.064;8.624;2022-12-18T06:26:30;-7.10;99.90
9998;DHT22;5038;53.064;8.624;2022-12-18T06:29:00;-7.10;99.90
9998;DHT22;5038;53.064;8.624;2022-12-18T06:31:28;-7.10;99.90
9998;DHT22;5038;53.064;8.624;2022-12-18T06:33:56;-7.10;99.90
9998;DHT22;5038;53.064;8.624;2022-12-18T06:36:24;-7.20;99.90
9998;DHT22;5038;53.064;8.624;2022-12-18T06:38:56;-7.10;99.90
9998;DHT22;5038;53.064;8.624;2022-12-18T06:41:24;-7.10;99.90
9998;DHT22;5038;53.064;8.624;2022-12-18T06:43:53;-7.10;99.90
9998;DHT22;5038;53.064;8.624;2022-12-18T06:46:27;-7.10;99.90
9998;DHT22;5038;53.064;8.624;2022-12-18T06:48:55;-7.10;99.90
9998;DHT22;5038;53.064;8.624;2022-12-18T06:51:25;-7.10;99.90
9998;DHT22;5038;53.064;8.624;2022-12-18T06:53:53;-7.10;99.90
9998;DHT22;5038;53.064;8.624;2022-12-18T06:56:21;-7.20;99.90
9998;DHT22;5038;53.064;8.624;2022-12-18T06:58:49;-7.20;99.90
9998;DHT22;5038;53.064;8.624;2022-12-18T07:01:17;-7.10;99.90
9998;DHT22;5038;53.064;8.624;2022-12-18T07:03:51;-7.20;99.90
9998;DHT22;5038;53.064;8.624;2022-12-18T07:06:21;-7.20;99.90
9998;DHT22;5038;53.064;8.624;2022-12-18T07:08:50;-7.20;99.90
9998;DHT22;5038;53.064;8.624;2022-12-18T07:11:18;-7.20;99.90
9998;DHT22;5038;53.064;8.624;2022-12-18T07:13:47;-7.20;99.90
9998;DHT22;5038;53.064;8.624;2022-12-18T07:16:16;-7.20;99.90
9998;DHT22;5038;53.064;8.624;2022-12-18T07:18:54;-7.20;99.90
9998;DHT22;5038;53.064;8.624;2022-12-18T07:21:23;-7.20;99.90
9998;DHT22;5038;53.064;8.624;2022-12-18T07:23:52;-7.20;99.90
9998;DHT22;5038;53.064;8.624;2022-12-18T07:26:21;-7.20;99.90
9998;DHT22;5038;53.064;8.624;2022-12-18T07:28:49;-7.20;99.90
9998;DHT22;5038;53.064;8.624;2022-12-18T07:31:19;-7.20;99.90
9998;DHT22;5038;53.064;8.624;2022-12-18T07:33:48;-7.20;99.90
9998;DHT22;5038;53.064;8.624;2022-12-18T07:36:18;-7.20;99.90
9998;DHT22;5038;53.064;8.624;2022-12-18T07:38:50;-7.20;99.90
9998;DHT22;5038;53.064;8.624;2022-12-18T07:41:19;-7.20;99.90
9998;DHT22;5038;53.064;8.624;2022-12-18T07:43:47;-7.20;99.90
9998;DHT22;5038;53.064;8.624;2022-12-18T07:46:16;-7.20;99.90
9998;DHT22;5038;53.064;8.624;2022-12-18T07:48:45;-7.20;99.90
9998;DHT22;5038;53.064;8.624;2022-12-18T07:51:18;-7.20;99.90
9998;DHT22;5038;53.064;8.624;2022-12-18T07:53:46;-7.10;99.90
9998;DHT22;5038;53.064;8.624;2022-12-18T07:56:18;-7.10;99.90
9998;DHT22;5038;53.064;8.624;2022-12-18T07:58:56;-7.10;99.90
9998;DHT22;5038;53.064;8.624;2022-12-18T08:01:25;-7.10;99.90
9998;DHT22;5038;53.064;8.624;2022-12-18T08:03:53;-7.10;99.90
9998;DHT22;5038;53.064;8.624;2022-12-18T08:06:23;-7.10;99.90
9998;DHT22;5038;53.064;8.624;2022-12-18T08:08:52;-7.10;99.90
9998;DHT22;5038;53.064;8.624;2022-12-18T08:11:22;-7.10;99.90
9998;DHT22;5038;53.064;8.624;2022-12-18T08:13:51;-7.10;99.90
9998;DHT22;5038;53.064;8.624;2022-12-18T08:16:20;-7.10;99.90
9998;DHT22;5038;53.064;8.624;2022-12-18T08:18:48;-7.00;99.90
9998;DHT22;5038;53.064;8.624;2022-12-18T08:21:19;-7.00;99.90
9998;DHT22;5038;53.064;8.624;2022-12-18T08:23:52;-7.00;99.90
9998;DHT22;5038;53.064;8.624;2022-12-18T08:26:22;-7.00;99.90
9998;DHT22;5038;53.064;8.624;2022-12-18T08:28:51;-6.90;99.90
9998;DHT22;5038;53.064;8.624;2022-12-18T08:31:19;-6.90;99.90
9998;DHT22;5038;53.064;8.624;2022-12-18T08:33:50;-6.90;99.90
9998;DHT22;5038;53.064;8.624;2022-12-18T08:36:20;-6.90;99.90
9998;DHT22;5038;53.064;8.624;2022-12-18T08:38:50;-6.80;99.90
9998;DHT22;5038;53.064;8.624;2022-12-18T08:41:19;-6.60;99.90
9998;DHT22;5038;53.064;8.624;2022-12-18T08:43:50;-6.80;99.90
9998;DHT22;5038;53.064;8.624;2022-12-18T08:46:37;-6.70;99.90
9998;DHT22;5038;53.064;8.624;2022-12-18T08:49:07;-6.70;99.90
9998;DHT22;5038;53.064;8.624;2022-12-18T08:51:36;-6.70;99.90
9998;DHT22;5038;53.064;8.624;2022-12-18T08:54:06;-6.60;99.90
9998;DHT22;5038;53.064;8.624;2022-12-18T08:56:34;-6.50;99.90
9998;DHT22;5038;53.064;8.624;2022-12-18T08:59:03;-6.40;99.90
9998;DHT22;5038;53.064;8.624;2022-12-18T09:01:32;-6.40;99.90
9998;DHT22;5038;53.064;8.624;2022-12-18T09:04:01;-6.40;99.90
9998;DHT22;5038;53.064;8.624;2022-12-18T09:06:30;-6.30;99.90
9998;DHT22;5038;53.064;8.624;2022-12-18T09:08:58;-6.30;99.90
9998;DHT22;5038;53.064;8.624;2022-12-18T09:11:29;-6.20;99.90
9998;DHT22;5038;53.064;8.624;2022-12-18T09:13:58;-6.10;99.90
9998;DHT22;5038;53.064;8.624;2022-12-18T09:16:28;-6.10;99.90
9998;DHT22;5038;53.064;8.624;2022-12-18T09:18:59;-6.00;99.90
9998;DHT22;5038;53.064;8.624;2022-12-18T09:21:30;-6.00;99.90
9998;DHT22;5038;53.064;8.624;2022-12-18T09:24:05;-5.90;99.90
9998;DHT22;5038;53.064;8.624;2022-12-18T09:26:36;-5.90;99.90
9998;DHT22;5038;53.064;8.624;2022-12-18T09:29:05;-5.80;99.90
9998;DHT22;5038;53.064;8.624;2022-12-18T09:31:34;-5.80;99.90
9998;DHT22;5038;53.064;8.624;2022-12-18T09:34:03;-5.70;99.90
9998;DHT22;5038;53.064;8.624;2022-12-18T09:36:31;-5.70;99.90
9998;DHT22;5038;53.064;8.624;2022-12-18T09:39:00;-5.60;99.90
9998;DHT22;5038;53.064;8.624;2022-12-18T09:41:42;-5.60;99.90
9998;DHT22;5038;53.064;8.624;2022-12-18T09:44:18;-5.50;99.90
9998;DHT22;5038;53.064;8.624;2022-12-18T09:46:52;-5.50;99.90
9998;DHT22;5038;53.064;8.624;2022-12-18T09:49:24;-5.50;99.90
9998;DHT22;5038;53.064;8.624;2022-12-18T09:51:56;-5.40;99.90
9998;DHT22;5038;53.064;8.624;2022-12-18T09:54:30;-5.40;99.90
9998;DHT22;5038;53.064;8.624;2022-12-18T09:57:02;-5.30;99.90
9998;DHT22;5038;53.064;8.624;2022-12-18T09:59:34;-5.20;99.90
9998;DHT22;5038;53.064;8.624;2022-12-18T10:02:14;-5.20;99.90
9998;DHT22;5038;53.064;8.624;2022-12-18T10:04:42;-5.10;99.90
9998;DHT22;5038;53.064;8.624;2022-12-18T10:07:16;-5.10;99.90
9998;DHT22;5038;53.064;8.624;2022-12-18T10:09:53;-5.00;99.90
9998;DHT22;5038;53.064;8.624;2022-12-18T10:12:34;-5.00;99.90
9998;DHT22;5038;53.064;8.624;2022-12-18T10:15:13;-4.90;99.90
9998;DHT22;5038;53.064;8.624;2022-12-18T10:17:47;-4.90;99.90
9998;DHT22;5038;53.064;8.624;2022-12-18T10:20:28;-4.80;99.90
9998;DHT22;5038;53.064;8.624;2022-12-18T10:23:01;-4.70;99.90
9998;DHT22;5038;53.064;8.624;2022-12-18T10:25:36;-4.70;99.90
9998;DHT22;5038;53.064;8.624;2022-12-18T10:28:12;-4.60;99.90
9998;DHT22;5038;53.064;8.624;2022-12-18T10:30:42;-4.60;99.90
9998;DHT22;5038;53.064;8.624;2022-12-18T10:33:12;-4.50;99.90
9998;DHT22;5038;53.064;8.624;2022-12-18T10:35:43;-4.50;99.90
9998;DHT22;5038;53.064;8.624;2022-12-18T10:38:26;-4.40;99.90
9998;DHT22;5038;53.064;8.624;2022-12-18T10:40:56;-4.40;99.90
9998;DHT22;5038;53.064;8.624;2022-12-18T10:43:28;-4.30;99.90
9998;DHT22;5038;53.064;8.624;2022-12-18T10:46:12;-4.30;99.90
9998;DHT22;5038;53.064;8.624;2022-12-18T10:48:54;-4.30;99.90
9998;DHT22;5038;53.064;8.624;2022-12-18T10:51:25;-4.20;99.90
9998;DHT22;5038;53.064;8.624;2022-12-18T10:54:00;-4.20;99.90
9998;DHT22;5038;53.064;8.624;2022-12-18T10:56:31;-4.20;99.90
9998;DHT22;5038;53.064;8.624;2022-12-18T10:59:04;-4.10;99.90
9998;DHT22;5038;53.064;8.624;2022-12-18T11:01:47;-4.10;99.90
9998;DHT22;5038;53.064;8.624;2022-12-18T11:04:21;-4.00;99.90
9998;DHT22;5038;53.064;8.624;2022-12-18T11:06:55;-4.00;99.90
9998;DHT22;5038;53.064;8.624;2022-12-18T11:09:24;-3.90;99.90
9998;DHT22;5038;53.064;8.624;2022-12-18T11:11:55;-3.90;99.90
9998;DHT22;5038;53.064;8.624;2022-12-18T11:14:26;-3.80;99.90
9998;DHT22;5038;53.064;8.624;2022-12-18T11:16:57;-3.80;99.90
9998;DHT22;5038;53.064;8.624;2022-12-18T11:19:52;-3.70;99.90
9998;DHT22;5038;53.064;8.624;2022-12-18T11:22:23;-3.70;99.90
9998;DHT22;5038;53.064;8.624;2022-12-18T11:24:56;-3.60;99.90
9998;DHT22;5038;53.064;8.624;2022-12-18T11:27:51;-3.60;99.90
9998;DHT22;5038;53.064;8.624;2022-12-18T11:30:26;-3.50;99.90
9998;DHT22;5038;53.064;8.624;2022-12-18T11:32:58;-3.50;99.90
9998;DHT22;5038;53.064;8.624;2022-12-18T11:35:42;-3.40;99.90
9998;DHT22;5038;53.064;8.624;2022-12-18T11:38:18;-3.40;99.90
9998;DHT22;5038;53.064;8.624;2022-12-18T11:40:52;-3.40;99.90
9998;DHT22;5038;53.064;8.624;2022-12-18T11:43:26;-3.30;99.90
9998;DHT22;5038;53.064;8.624;2022-12-18T11:46:00;-3.20;99.90
9998;DHT22;5038;53.064;8.624;2022-12-18T11:48:33;-3.20;99.90
9998;DHT22;5038;53.064;8.624;2022-12-18T11:51:03;-3.10;99.90
9998;DHT22;5038;53.064;8.624;2022-12-18T11:53:33;-3.00;99.90
9998;DHT22;5038;53.064;8.624;2022-12-18T11:56:26;-3.00;99.90
9998;DHT22;5038;53.064;8.624;2022-12-18T11:58:59;-2.90;99.90
9998;DHT22;5038;53.064;8.624;2022-12-18T12:01:42;-2.90;99.90
9998;DHT22;5038;53.064;8.624;2022-12-18T12:04:30;-2.80;99.90
9998;DHT22;5038;53.064;8.624;2022-12-18T12:07:07;-2.80;99.90
9998;DHT22;5038;53.064;8.624;2022-12-18T12:09:43;-2.70;99.90
9998;DHT22;5038;53.064;8.624;2022-12-18T12:12:26;-2.70;99.90
9998;DHT22;5038;53.064;8.624;2022-12-18T12:15:02;-2.70;99.90
9998;DHT22;5038;53.064;8.624;2022-12-18T12:17:38;-2.70;99.90
9998;DHT22;5038;53.064;8.624;2022-12-18T12:20:15;-2.60;99.90
9998;DHT22;5038;53.064;8.624;2022-12-18T12:22:52;-2.60;99.90
9998;DHT22;5038;53.064;8.624;2022-12-18T12:25:32;-2.60;99.90
9998;DHT22;5038;53.064;8.624;2022-12-18T12:28:13;-2.60;99.90
9998;DHT22;5038;53.064;8.624;2022-12-18T12:30:55;-2.50;99.90
9998;DHT22;5038;53.064;8.624;2022-12-18T12:33:38;-2.50;99.90
9998;DHT22;5038;53.064;8.624;2022-12-18T12:36:14;-2.50;99.90
9998;DHT22;5038;53.064;8.624;2022-12-18T12:38:47;-2.50;99.90
9998;DHT22;5038;53.064;8.624;2022-12-18T12:41:21;-2.50;99.90
9998;DHT22;5038;53.064;8.624;2022-12-18T12:44:12;-2.40;99.90
9998;DHT22;5038;53.064;8.624;2022-12-18T12:46:42;-2.40;99.90
9998;DHT22;5038;53.064;8.624;2022-12-18T12:49:15;-2.40;99.90
9998;DHT22;5038;53.064;8.624;2022-12-18T12:51:45;-2.40;99.90
9998;DHT22;5038;53.064;8.624;2022-12-18T12:54:19;-2.40;99.90
9998;DHT22;5038;53.064;8.624;2022-12-18T12:56:52;-2.30;99.90
9998;DHT22;5038;53.064;8.624;2022-12-18T12:59:27;-2.30;99.90
9998;DHT22;5038;53.064;8.624;2022-12-18T13:02:02;-2.30;99.90
9998;DHT22;5038;53.064;8.624;2022-12-18T13:04:36;-2.30;99.90
9998;DHT22;5038;53.064;8.624;2022-12-18T13:07:12;-2.30;99.90
9998;DHT22;5038;53.064;8.624;2022-12-18T13:10:13;-2.30;99.90
9998;DHT22;5038;53.064;8.624;2022-12-18T13:12:55;-2.20;99.90
9998;DHT22;5038;53.064;8.624;2022-12-18T13:15:28;-2.20;99.90
9998;DHT22;5038;53.064;8.624;2022-12-18T13:18:09;-2.20;99.90
9998;DHT22;5038;53.064;8.624;2022-12-18T13:20:42;-2.20;99.90
9998;DHT22;5038;53.064;8.624;2022-12-18T13:23:27;-2.20;99.90
9998;DHT22;5038;53.064;8.624;2022-12-18T13:25:56;-2.10;99.90
9998;DHT22;5038;53.064;8.624;2022-12-18T13:28:51;-2.10;99.90
9998;DHT22;5038;53.064;8.624;2022-12-18T13:31:59;-2.10;99.90
9998;DHT22;5038;53.064;8.624;2022-12-18T13:34:28;-2.10;99.90
9998;DHT22;5038;53.064;8.624;2022-12-18T13:40:00;-2.10;99.90
9998;DHT22;5038;53.064;8.624;2022-12-18T13:42:38;-2.10;99.90
9998;DHT22;5038;53.064;8.624;2022-12-18T13:45:45;-2.10;99.90
9998;DHT22;5038;53.064;8.624;2022-12-18T13:48:24;-2.10;99.90
9998;DHT22;5038;53.064;8.624;2022-12-18T13:50:57;-2.10;99.90
9998;DHT22;5038;53.064;8.624;2022-12-18T13:53:29;-2.10;99.90
9998;DHT22;5038;53.064;8.624;2022-12-18T13:55:58;-2.10;99.90
9998;DHT22;5038;53.064;8.624;2022-12-18T13:58:27;-2.10;99.90
9998;DHT22;5038;53.064;8.624;2022-12-18T14:00:55;-2.10;99.90
9998;DHT22;5038;53.064;8.624;2022-12-18T14:03:28;-2.10;99.90
9998;DHT22;5038;53.064;8.624;2022-12-18T14:06:00;-2.10;99.90
9998;DHT22;5038;53.064;8.624;2022-12-18T14:08:37;-2.10;99.90
9998;DHT22;5038;53.064;8.624;2022-12-18T14:11:07;-2.10;99.90
9998;DHT22;5038;53.064;8.624;2022-12-18T14:13:41;-2.10;99.90
9998;DHT22;5038;53.064;8.624;2022-12-18T14:16:14;-2.00;99.90
9998;DHT22;5038;53.064;8.624;2022-12-18T14:18:48;-2.10;99.90
9998;DHT22;5038;53.064;8.624;2022-12-18T14:21:21;-2.10;99.90
9998;DHT22;5038;53.064;8.624;2022-12-18T14:24:04;-2.10;99.90
9998;DHT22;5038;53.064;8.624;2022-12-18T14:26:32;-2.10;99.90
9998;DHT22;5038;53.064;8.624;2022-12-18T14:29:18;-2.10;99.90
9998;DHT22;5038;53.064;8.624;2022-12-18T14:32:04;-2.00;99.90
9998;DHT22;5038;53.064;8.624;2022-12-18T14:34:42;-2.00;99.90
9998;DHT22;5038;53.064;8.624;2022-12-18T14:37:11;-2.00;99.90
9998;DHT22;5038;53.064;8.624;2022-12-18T14:39:40;-2.10;99.90
9998;DHT22;5038;53.064;8.624;2022-12-18T14:42:19;-2.10;99.90
9998;DHT22;5038;53.064;8.624;2022-12-18T14:44:47;-2.10;99.90
9998;DHT22;5038;53.064;8.624;2022-12-18T14:47:35;-2.10;99.90
9998;DHT22;5038;53.064;8.624;2022-12-18T14:50:12;-2.10;99.90
9998;DHT22;5038;53.064;8.624;2022-12-18T14:52:41;-2.10;99.90
9998;DHT22;5038;53.064;8.624;2022-12-18T14:55:15;-2.10;99.90
9998;DHT22;5038;53.064;8.624;2022-12-18T14:57:43;-2.10;99.90
9998;DHT22;5038;53.064;8.624;2022-12-18T15:00:17;-2.10;99.90
9998;DHT22;5038;53.064;8.624;2022-12-18T15:02:47;-2.10;99.90
9998;DHT22;5038;53.064;8.624;2022-12-18T15:05:20;-2.10;99.90
9998;DHT22;5038;53.064;8.624;2022-12-18T15:07:54;-2.10;99.90
9998;DHT22;5038;53.064;8.624;2022-12-18T15:10:24;-2.10;99.90
9998;DHT22;5038;53.064;8.624;2022-12-18T15:13:07;-2.10;99.90
9998;DHT22;5038;53.064;8.624;2022-12-18T15:15:47;-2.10;99.90
9998;DHT22;5038;53.064;8.624;2022-12-18T15:18:18;-2.10;99.90
9998;DHT22;5038;53.064;8.624;2022-12-18T15:20:49;-2.10;99.90
9998;DHT22;5038;53.064;8.624;2022-12-18T15:23:20;-2.10;99.90
9998;DHT22;5038;53.064;8.624;2022-12-18T15:25:55;-2.10;99.90
9998;DHT22;5038;53.064;8.624;2022-12-18T15:28:25;-2.10;99.90
9998;DHT22;5038;53.064;8.624;2022-12-18T15:31:17;-2.10;99.90
9998;DHT22;5038;53.064;8.624;2022-12-18T15:34:02;-2.10;99.90
9998;DHT22;5038;53.064;8.624;2022-12-18T15:36:34;-2.10;99.90
9998;DHT22;5038;53.064;8.624;2022-12-18T15:39:03;-2.10;99.90
9998;DHT22;5038;53.064;8.624;2022-12-18T15:41:34;-2.10;99.90
9998;DHT22;5038;53.064;8.624;2022-12-18T15:44:03;-2.10;99.90
9998;DHT22;5038;53.064;8.624;2022-12-18T15:46:45;-2.10;99.90
9998;DHT22;5038;53.064;8.624;2022-12-18T15:49:13;-2.10;99.90
9998;DHT22;5038;53.064;8.624;2022-12-18T15:51:43;-2.10;99.90
9998;DHT22;5038;53.064;8.624;2022-12-18T15:54:14;-2.10;99.90
9998;DHT22;5038;53.064;8.624;2022-12-18T15:56:43;-2.10;99.90
9998;DHT22;5038;53.064;8.624;2022-12-18T15:59:28;-2.10;99.90
9998;DHT22;5038;53.064;8.624;2022-12-18T16:01:56;-2.10;99.90
9998;DHT22;5038;53.064;8.624;2022-12-18T16:04:25;-2.10;99.90
9998;DHT22;5038;53.064;8.624;2022-12-18T16:06:55;-2.00;99.90
9998;DHT22;5038;53.064;8.624;2022-12-18T16:09:40;-2.00;99.90
9998;DHT22;5038;53.064;8.624;2022-12-18T16:12:15;-2.00;99.90
9998;DHT22;5038;53.064;8.624;2022-12-18T16:14:44;-2.00;99.90
9998;DHT22;5038;53.064;8.624;2022-12-18T16:17:12;-2.00;99.90
9998;DHT22;5038;53.064;8.624;2022-12-18T16:19:41;-2.00;99.90
9998;DHT22;5038;53.064;8.624;2022-12-18T16:22:18;-2.00;99.90
9998;DHT22;5038;53.064;8.624;2022-12-18T16:24:47;-2.00;99.90
9998;DHT22;5038;53.064;8.624;2022-12-18T16:27:15;-2.00;99.90
9998;DHT22;5038;53.064;8.624;2022-12-18T16:29:43;-2.00;99.90
9998;DHT22;5038;53.064;8.624;2022-12-18T16:32:13;-2.00;99.90
9998;DHT22;5038;53.064;8.624;2022-12-18T16:34:42;-2.00;99.90
9998;DHT22;5038;53.064;8.624;2022-12-18T16:37:14;-1.90;99.90
9998;DHT22;5038;53.064;8.624;2022-12-18T16:39:43;-2.00;99.90
9998;DHT22;5038;53.064;8.624;2022-12-18T16:42:13;-2.00;99.90
9998;DHT22;5038;53.064;8.624;2022-12-18T16:44:44;-2.00;99.90